Hlavní strana
METAR-TAF:

METAR-TAF

Letiště :

Letiště Agadir

Agadir, Maroko

zeměpisná šířka: 30-20N, zeměpisná délka: 009-24W, výška: 74 m

Aktuální stav počasí

Zpráva byla vytvořena před 33 minutami, v 18:00 UTC
Jihozápadní vítr 16 kt
Teplota 20°C
Vlhkost vzduchu 73%
Tlak 1017 hPa
Viditelnost 10 km a více
Žádná oblačnost pod 1500 m, nevyskytují se cumulonimby.

METAR: GMAD 061800Z 22016KT CAVOK 20/15 Q1017 NOSIG

Čas: 19:33 (18:33 UTC)

Předpověď počasí

Zpráva byla vytvořena před 1 hodinou a 33 minutami, v 17:00 UTC
Předpověď platná od 06 v 18 UTC do 07 v 24 UTC
Jihojihozápadní vítr 8 kt
Viditelnost: 8000 m
Polojasno ve výšce 2000 ft
Změna
od 07 v 12 UTC do 07 v 14 UTC
Viditelnost 10 km a více
Žádná oblačnost pod 1500 m, nevyskytují se cumulonimby.

TAF: GMAD 061700Z 0618/0724 20008KT 8000 SCT020 BECMG 0712/0714 27012 CAVOK

Stav a předpovědi počasí z více než 4 000 letišť (zprávy METAR a TAF).

Červené a žluté tečky na mapě představují dostupné meteorologické stanice.

Když kurzor umístíte na tečku, zobrazí se název stanice.

Pak kliknutím zobrazíte stav a předpověď počasí.

Chcete-li změnit mapu, kliknutím na zelené tlačítko se znaménkem +mapu přiblížíte, kliknutím na zelené tlačítko se znaménkem – mapu oddálíte a kliknutím na zelené šipky přejdete na sousední mapy.


METAR-TAF: